createdAt,value
2023-01-31T00:00:56.629Z,100442.16
2023-01-31T00:03:33.929Z,100444.75
2023-01-31T00:06:18.309Z,100444.75
2023-01-31T00:08:56.915Z,100442.13
2023-01-31T00:11:42.409Z,100445.63
2023-01-31T00:14:15.817Z,100446.47
2023-01-31T00:16:48.436Z,100449.06
2023-01-31T00:19:17.434Z,100457.75
2023-01-31T00:21:49.755Z,100455.13
2023-01-31T00:24:19.162Z,100455.97
2023-01-31T00:26:48.918Z,100457.69
2023-01-31T00:29:20.556Z,100462.91
2023-01-31T00:31:49.815Z,100464.66
2023-01-31T00:34:20.484Z,100468.19
2023-01-31T00:36:50.878Z,100471.66
2023-01-31T00:39:21.631Z,100469.03
2023-01-31T00:41:50.406Z,100485.63
2023-01-31T00:44:23.742Z,100469.97
2023-01-31T00:46:54.694Z,100469.91
2023-01-31T00:49:29.819Z,100476.91
2023-01-31T00:52:00.146Z,100487.34
2023-01-31T00:54:29.116Z,100497.00
2023-01-31T00:57:00.868Z,100490.91
2023-01-31T00:59:31.886Z,100495.28
2023-01-31T01:02:01.913Z,100507.47
2023-01-31T01:04:38.390Z,100500.56
2023-01-31T01:07:13.934Z,100503.13
2023-01-31T01:09:42.866Z,100498.78
2023-01-31T01:12:58.561Z,100504.84
2023-01-31T01:15:01.376Z,100521.41
2023-01-31T01:17:39.089Z,100516.19
2023-01-31T01:20:12.098Z,100513.59
2023-01-31T01:22:42.794Z,100507.44
2023-01-31T01:25:16.359Z,100514.41
2023-01-31T01:27:45.310Z,100517.91
2023-01-31T01:30:19.435Z,100512.69
2023-01-31T01:32:48.803Z,100523.16
2023-01-31T01:35:18.189Z,100531.88
2023-01-31T01:37:48.893Z,100531.03
2023-01-31T01:40:24.487Z,100528.41
2023-01-31T01:42:54.251Z,100538.88
2023-01-31T01:45:23.567Z,100533.66
2023-01-31T01:47:56.116Z,100547.66
2023-01-31T01:50:37.909Z,100535.41
2023-01-31T01:53:12.150Z,100545.84
2023-01-31T01:55:47.937Z,100550.16
2023-01-31T01:58:25.484Z,100538.78
2023-01-31T02:00:56.737Z,100554.47
2023-01-31T02:03:27.319Z,100561.50
2023-01-31T02:05:59.215Z,100560.53
2023-01-31T02:08:34.963Z,100562.31
2023-01-31T02:11:13.663Z,100569.31
2023-01-31T02:13:43.418Z,100574.66
2023-01-31T02:16:16.589Z,100565.84
2023-01-31T02:18:52.288Z,100577.22
2023-01-31T02:22:06.881Z,100570.22
2023-01-31T02:25:11.586Z,100581.59
2023-01-31T02:28:01.684Z,100588.63
2023-01-31T02:31:00.202Z,100594.72
2023-01-31T02:33:38.430Z,100609.50
2023-01-31T02:36:21.145Z,100611.25
2023-01-31T02:39:11.915Z,100614.72
2023-01-31T02:42:07.196Z,100622.63
2023-01-31T02:44:59.384Z,100630.44
2023-01-31T02:47:47.997Z,100627.84
2023-01-31T02:50:36.878Z,100631.28
2023-01-31T02:53:10.151Z,100643.50
2023-01-31T02:56:04.014Z,100647.00
2023-01-31T02:58:41.417Z,100650.50
2023-01-31T03:01:19.842Z,100654.72
2023-01-31T03:03:52.870Z,100666.91
2023-01-31T03:06:59.815Z,100678.16
2023-01-31T03:09:39.474Z,100677.09
2023-01-31T03:12:30.754Z,100686.56
2023-01-31T03:15:21.653Z,100686.50
2023-01-31T03:18:04.935Z,100696.16
2023-01-31T03:20:42.483Z,100694.31
2023-01-31T03:23:16.778Z,100694.31
2023-01-31T03:25:48.666Z,100698.78
2023-01-31T03:28:26.462Z,100701.41
2023-01-31T03:31:03.164Z,100687.38
2023-01-31T03:33:38.756Z,100686.47
2023-01-31T03:36:17.944Z,100696.91
2023-01-31T03:39:07.799Z,100697.78
2023-01-31T03:41:45.370Z,100703.91
2023-01-31T03:44:23.432Z,100707.34
2023-01-31T03:46:59.126Z,100707.38
2023-01-31T03:49:32.691Z,100709.91
2023-01-31T03:52:12.606Z,100718.59
2023-01-31T03:54:59.913Z,100719.59
2023-01-31T03:57:37.857Z,100718.03
2023-01-31T04:00:12.933Z,100722.41
2023-01-31T04:02:53.487Z,100730.41
2023-01-31T04:05:30.576Z,100733.84
2023-01-31T04:08:06.285Z,100719.13
2023-01-31T04:10:38.434Z,100739.25
2023-01-31T04:13:10.747Z,100744.59
2023-01-31T04:15:42.710Z,100753.34
2023-01-31T04:18:15.750Z,100756.03
2023-01-31T04:20:44.741Z,100750.75
2023-01-31T04:23:19.170Z,100761.28
2023-01-31T04:25:49.421Z,100766.50
2023-01-31T04:28:20.707Z,100768.31
2023-01-31T04:30:55.230Z,100774.47
2023-01-31T04:33:25.693Z,100781.50
2023-01-31T04:35:54.596Z,100776.22
2023-01-31T04:38:23.363Z,100777.13
2023-01-31T04:40:55.896Z,100779.72
2023-01-31T04:43:55.751Z,100786.75
2023-01-31T04:46:30.563Z,100780.63
2023-01-31T04:49:01.467Z,100780.63
2023-01-31T04:51:30.407Z,100784.06
2023-01-31T04:54:01.327Z,100775.31
2023-01-31T04:56:33.698Z,100780.53
2023-01-31T04:59:02.888Z,100781.44
2023-01-31T05:01:34.589Z,100780.56
2023-01-31T05:04:11.374Z,100791.88
2023-01-31T05:06:40.320Z,100780.69
2023-01-31T05:09:13.832Z,100779.78
2023-01-31T05:11:48.927Z,100780.66
2023-01-31T05:14:18.469Z,100786.72
2023-01-31T05:16:52.021Z,100784.03
2023-01-31T05:19:22.883Z,100798.81
2023-01-31T05:21:59.365Z,100801.41
2023-01-31T05:24:31.747Z,100798.94
2023-01-31T05:27:05.936Z,100802.38
2023-01-31T05:29:38.126Z,100802.28
2023-01-31T05:32:07.637Z,100803.22
2023-01-31T05:37:26.519Z,100811.97
2023-01-31T05:49:09.664Z,100825.16
2023-01-31T05:51:41.216Z,100823.44
2023-01-31T05:54:14.679Z,100823.34
2023-01-31T05:56:51.009Z,100825.16
2023-01-31T05:59:21.689Z,100826.91
2023-01-31T06:01:50.980Z,100827.75
2023-01-31T06:04:30.884Z,100822.44
2023-01-31T06:07:00.436Z,100827.69
2023-01-31T06:09:29.880Z,100834.75
2023-01-31T06:12:01.946Z,100832.16
2023-01-31T06:14:54.993Z,100842.63
2023-01-31T06:17:29.345Z,100831.28
2023-01-31T06:20:00.681Z,100831.22
2023-01-31T06:22:32.932Z,100844.25
2023-01-31T06:25:12.535Z,100842.53
2023-01-31T06:28:31.730Z,100849.53
2023-01-31T06:31:10.919Z,100858.22
2023-01-31T06:33:46.757Z,100853.91
2023-01-31T06:36:34.435Z,100860.84
2023-01-31T06:39:17.869Z,100864.31
2023-01-31T06:41:59.276Z,100866.97
2023-01-31T06:44:28.167Z,100858.19
2023-01-31T06:46:57.314Z,100861.63
2023-01-31T06:49:48.799Z,100866.00
2023-01-31T06:52:27.518Z,100864.31
2023-01-31T06:54:56.388Z,100875.00
2023-01-31T06:57:32.665Z,100868.81
2023-01-31T07:00:03.467Z,100869.78
2023-01-31T07:02:36.819Z,100876.69
2023-01-31T07:05:09.443Z,100874.13
2023-01-31T07:07:49.902Z,100879.44
2023-01-31T07:10:19.526Z,100881.25
2023-01-31T07:12:48.361Z,100886.38
2023-01-31T07:15:19.493Z,100871.53
2023-01-31T07:17:48.520Z,100873.28
2023-01-31T07:20:17.720Z,100876.72
2023-01-31T07:22:59.718Z,100888.09
2023-01-31T07:25:36.214Z,100880.28
2023-01-31T07:28:14.760Z,100876.69
2023-01-31T07:33:57.095Z,100874.88
2023-01-31T07:36:41.314Z,100873.03
2023-01-31T07:39:18.500Z,100880.84
2023-01-31T08:10:53.092Z,100889.44
2023-01-31T08:13:22.613Z,100890.47
2023-01-31T08:15:57.568Z,100894.84
2023-01-31T08:18:26.674Z,100887.94
2023-01-31T08:20:58.936Z,100877.53
2023-01-31T08:23:30.730Z,100885.41
2023-01-31T08:26:10.602Z,100881.97
2023-01-31T08:28:41.848Z,100874.94
2023-01-31T08:31:19.904Z,100870.63
2023-01-31T08:33:51.460Z,100872.53
2023-01-31T08:36:25.066Z,100871.81
2023-01-31T08:38:55.612Z,100871.06
2023-01-31T08:41:32.637Z,100863.28
2023-01-31T08:44:09.903Z,100858.91
2023-01-31T08:46:39.940Z,100863.31
2023-01-31T08:49:32.751Z,100867.78
2023-01-31T08:52:23.651Z,100863.47
2023-01-31T08:58:04.613Z,100872.28
2023-01-31T09:00:34.592Z,100860.97
2023-01-31T09:03:16.220Z,100868.88
2023-01-31T09:05:55.718Z,100859.28
2023-01-31T09:09:01.644Z,100860.09
2023-01-31T09:11:48.880Z,100859.31
2023-01-31T09:14:46.423Z,100867.22
2023-01-31T09:17:23.002Z,100867.19
2023-01-31T09:23:11.079Z,100869.78
2023-01-31T09:26:13.913Z,100869.81
2023-01-31T09:29:25.862Z,100865.47
2023-01-31T09:32:08.224Z,100857.56
2023-01-31T09:34:44.034Z,100861.97
2023-01-31T11:33:39.045Z,100686.09
2023-01-31T11:36:19.158Z,100679.91
2023-01-31T11:38:47.984Z,100677.19
2023-01-31T11:41:39.822Z,100576.63
2023-01-31T11:44:12.774Z,100671.97
2023-01-31T11:46:49.160Z,100656.22
2023-01-31T11:49:26.585Z,100642.16
2023-01-31T11:52:00.537Z,100637.69
2023-01-31T11:54:33.517Z,100635.06
2023-01-31T11:57:16.159Z,100622.75
2023-01-31T11:59:50.433Z,100610.44
2023-01-31T12:02:36.508Z,100617.34
2023-01-31T12:05:21.298Z,100600.63
2023-01-31T12:07:55.548Z,100598.78
2023-01-31T12:10:37.190Z,100595.25
2023-01-31T12:13:19.170Z,100582.31
2023-01-31T12:15:58.939Z,100578.97
2023-01-31T12:18:52.086Z,100574.84
2023-01-31T12:21:41.360Z,100563.56
2023-01-31T12:24:28.029Z,100565.31
2023-01-31T12:27:11.526Z,100550.34
2023-01-31T12:30:05.018Z,100550.34
2023-01-31T12:32:52.815Z,100545.03
2023-01-31T12:35:42.647Z,100539.81
2023-01-31T12:38:38.880Z,100535.44
2023-01-31T12:41:28.755Z,100531.97
2023-01-31T12:44:34.478Z,100524.97
2023-01-31T12:47:23.657Z,100529.34
2023-01-31T12:50:22.903Z,100531.09
2023-01-31T12:53:23.973Z,100511.88
2023-01-31T12:56:15.603Z,100502.16
2023-01-31T12:59:13.852Z,100504.72
2023-01-31T13:01:53.023Z,100492.41
2023-01-31T13:04:44.079Z,100490.66
2023-01-31T13:07:32.042Z,100489.78
2023-01-31T13:10:23.413Z,100492.47
2023-01-31T13:12:54.687Z,100491.59
2023-01-31T13:15:36.595Z,100482.88
2023-01-31T13:18:25.863Z,100476.78
2023-01-31T13:21:03.056Z,100470.66
2023-01-31T13:23:55.295Z,100477.66
2023-01-31T13:26:34.242Z,100467.16
2023-01-31T13:29:13.242Z,100475.03
2023-01-31T13:31:48.490Z,100464.56
2023-01-31T13:34:42.615Z,100447.97
2023-01-31T13:37:21.290Z,100448.84
2023-01-31T13:39:59.048Z,100457.66
2023-01-31T13:42:38.600Z,100446.34
2023-01-31T13:45:11.496Z,100431.50
2023-01-31T13:50:43.691Z,100441.19
2023-01-31T13:53:28.762Z,100429.78
2023-01-31T13:56:02.145Z,100427.16
2023-01-31T13:58:36.238Z,100417.53
2023-01-31T14:01:13.495Z,100411.41
2023-01-31T14:04:21.801Z,100412.28
2023-01-31T14:07:22.427Z,100418.38
2023-01-31T14:10:47.642Z,100418.41
2023-01-31T14:13:43.944Z,100412.28
2023-01-31T14:16:40.476Z,100416.69
2023-01-31T14:19:47.946Z,100414.03
2023-01-31T14:22:18.747Z,100416.66
2023-01-31T14:25:16.922Z,100428.03
2023-01-31T14:28:09.310Z,100416.66
2023-01-31T14:30:43.109Z,100412.34
2023-01-31T14:33:29.882Z,100406.19
2023-01-31T14:36:39.137Z,100406.22
2023-01-31T14:40:02.687Z,100404.50
2023-01-31T14:43:24.096Z,100394.03
2023-01-31T14:46:31.106Z,100387.00
2023-01-31T14:49:30.878Z,100384.41
2023-01-31T14:52:30.424Z,100376.53
2023-01-31T14:55:38.549Z,100383.56
2023-01-31T14:58:26.561Z,100374.81
2023-01-31T15:01:01.156Z,100374.81
2023-01-31T15:03:38.825Z,100375.69
2023-01-31T15:06:16.362Z,100372.22
2023-01-31T15:08:59.083Z,100375.75
2023-01-31T15:11:52.170Z,100373.16
2023-01-31T15:14:47.611Z,100377.53
2023-01-31T15:17:35.917Z,100371.41
2023-01-31T15:20:27.742Z,100364.44
2023-01-31T15:23:10.899Z,100362.66
2023-01-31T15:25:48.772Z,100361.81
2023-01-31T15:28:31.663Z,100352.22
2023-01-31T15:31:06.234Z,100366.19
2023-01-31T15:33:47.542Z,100362.69
2023-01-31T15:36:26.661Z,100352.19
2023-01-31T15:39:10.247Z,100352.22
2023-01-31T15:41:49.794Z,100355.69
2023-01-31T15:44:22.494Z,100355.72
2023-01-31T15:46:59.297Z,100347.81
2023-01-31T15:49:40.651Z,100355.69
2023-01-31T15:52:23.643Z,100342.59
2023-01-31T15:55:07.152Z,100339.97
2023-01-31T15:57:55.997Z,100337.34
2023-01-31T16:00:34.950Z,100332.97
2023-01-31T16:03:05.551Z,100328.63
2023-01-31T16:05:39.181Z,100329.50
2023-01-31T16:08:34.181Z,100337.38
2023-01-31T16:11:06.018Z,100323.38
2023-01-31T16:13:48.291Z,100335.59
2023-01-31T16:16:26.889Z,100335.59
2023-01-31T16:19:08.500Z,100340.84
2023-01-31T16:21:41.231Z,100338.22
2023-01-31T16:24:18.369Z,100339.09
2023-01-31T16:26:57.697Z,100348.72
2023-01-31T16:29:42.657Z,100354.81
2023-01-31T16:32:23.941Z,100344.31
2023-01-31T16:34:58.736Z,100351.31
2023-01-31T16:37:48.676Z,100351.31
2023-01-31T16:40:27.879Z,100341.72
2023-01-31T16:43:11.391Z,100319.00
2023-01-31T16:45:54.836Z,100326.88
2023-01-31T16:48:37.825Z,100329.47
2023-01-31T16:51:42.310Z,100269.25
2023-01-31T16:54:18.693Z,100336.47
2023-01-31T16:56:50.735Z,100344.31
2023-01-31T16:59:54.275Z,100326.00
2023-01-31T17:02:33.542Z,100336.41
2023-01-31T17:05:20.958Z,100339.94
2023-01-31T17:07:50.777Z,100321.59
2023-01-31T17:10:27.338Z,100319.84
2023-01-31T17:13:02.445Z,100324.19
2023-01-31T17:15:31.481Z,100329.41
2023-01-31T17:18:02.356Z,100316.34
2023-01-31T17:20:31.312Z,100312.84
2023-01-31T17:23:03.500Z,100326.81
2023-01-31T17:25:36.658Z,100326.81
2023-01-31T17:28:06.121Z,100310.16
2023-01-31T17:30:35.973Z,100320.66
2023-01-31T17:33:06.469Z,100303.22
2023-01-31T17:35:38.888Z,100320.63
2023-01-31T17:38:11.156Z,100321.50
2023-01-31T17:40:53.575Z,100311.91
2023-01-31T17:52:36.849Z,100290.06
2023-01-31T18:00:31.372Z,100294.44
2023-01-31T18:03:00.889Z,100290.94
2023-01-31T18:05:38.802Z,100303.16
2023-01-31T18:08:12.807Z,100283.94
2023-01-31T18:10:43.475Z,100288.34
2023-01-31T18:13:17.707Z,100302.31
2023-01-31T18:15:46.918Z,100299.69
2023-01-31T18:18:16.002Z,100283.94
2023-01-31T18:21:00.738Z,100282.19
2023-01-31T18:23:32.493Z,100272.59
2023-01-31T18:26:01.627Z,100270.84
2023-01-31T18:28:31.766Z,100268.22
2023-01-31T18:31:14.026Z,100258.59
2023-01-31T18:33:46.452Z,100261.19
2023-01-31T18:36:20.246Z,100238.47
2023-01-31T18:39:01.189Z,100255.09
2023-01-31T18:41:30.229Z,100248.06
2023-01-31T18:44:00.726Z,100194.03
2023-01-31T18:46:33.464Z,100242.78
2023-01-31T18:49:05.048Z,100246.28
2023-01-31T18:51:36.410Z,100238.41
2023-01-31T18:54:10.016Z,100249.78
2023-01-31T18:56:41.728Z,100235.78
2023-01-31T18:59:12.728Z,100225.34
2023-01-31T19:01:43.506Z,100226.22
2023-01-31T19:04:13.449Z,100221.84
2023-01-31T19:07:11.794Z,100227.06
2023-01-31T19:09:47.644Z,100222.72
2023-01-31T19:12:16.916Z,100236.72
2023-01-31T19:14:48.123Z,100241.94
2023-01-31T19:17:17.708Z,100224.44
2023-01-31T20:18:53.322Z,100222.56
2023-01-31T20:21:45.285Z,100207.72
2023-01-31T20:24:47.941Z,100214.66
2023-01-31T20:34:10.576Z,100216.28
2023-01-31T20:36:56.795Z,100211.88
2023-01-31T20:39:44.798Z,100206.50
2023-01-31T20:42:14.119Z,100202.25
2023-01-31T20:44:43.203Z,100198.78
2023-01-31T20:47:15.266Z,100201.38
2023-01-31T20:49:45.969Z,100208.25
2023-01-31T20:52:15.140Z,100203.06
2023-01-31T20:54:48.959Z,100215.38
2023-01-31T20:57:19.893Z,100218.88
2023-01-31T20:59:53.048Z,100230.19
2023-01-31T21:02:22.019Z,100232.03
2023-01-31T21:04:54.222Z,100234.66
2023-01-31T21:07:24.320Z,100226.78
2023-01-31T21:09:55.138Z,100240.75
2023-01-31T21:12:28.902Z,100232.81
2023-01-31T21:14:58.067Z,100244.13
2023-01-31T21:17:40.223Z,100236.22
2023-01-31T21:20:14.775Z,100251.06
2023-01-31T21:22:45.919Z,100241.31
2023-01-31T21:25:15.256Z,100238.81
2023-01-31T21:27:44.393Z,100255.47
2023-01-31T21:30:15.629Z,100255.47
2023-01-31T21:32:44.709Z,100236.19
2023-01-31T21:35:17.901Z,100246.75
2023-01-31T21:37:49.001Z,100257.34
2023-01-31T21:40:18.515Z,100261.59
2023-01-31T21:42:50.103Z,100269.50
2023-01-31T21:45:39.867Z,100264.25
2023-01-31T21:48:28.240Z,100257.25
2023-01-31T21:50:59.105Z,100252.78
2023-01-31T21:53:34.395Z,100274.66
2023-01-31T21:56:04.648Z,100273.81
2023-01-31T21:58:34.487Z,100289.53
2023-01-31T22:01:09.135Z,100263.25
2023-01-31T22:03:45.916Z,100298.31
2023-01-31T22:06:18.540Z,100318.56
2023-01-31T22:08:51.647Z,100308.97
2023-01-31T22:11:23.855Z,100326.53
2023-01-31T22:13:56.161Z,100314.28
2023-01-31T22:16:28.590Z,100305.63
2023-01-31T22:19:01.711Z,100306.50
2023-01-31T22:21:33.868Z,100288.22
2023-01-31T22:24:32.322Z,100281.31
2023-01-31T22:27:01.603Z,100274.38
2023-01-31T22:29:30.671Z,100272.63
2023-01-31T22:31:59.833Z,100288.41
2023-01-31T22:34:31.275Z,100284.88
2023-01-31T22:37:01.760Z,100275.28
2023-01-31T22:39:31.331Z,100277.06
2023-01-31T22:42:00.252Z,100277.03
2023-01-31T22:44:31.144Z,100274.38
2023-01-31T22:47:02.260Z,100267.44
2023-01-31T22:49:34.537Z,100271.81
2023-01-31T22:52:05.328Z,100258.72
2023-01-31T22:54:34.531Z,100263.94
2023-01-31T22:57:03.694Z,100263.88
2023-01-31T22:59:32.764Z,100260.31
2023-01-31T23:02:01.867Z,100262.03
2023-01-31T23:04:30.980Z,100257.66
2023-01-31T23:07:00.047Z,100262.06
2023-01-31T23:09:30.592Z,100267.34
2023-01-31T23:11:59.786Z,100269.97
2023-01-31T23:14:28.980Z,100281.25
2023-01-31T23:17:15.513Z,100271.56
2023-01-31T23:19:44.499Z,100274.13
2023-01-31T23:22:19.122Z,100278.47
2023-01-31T23:24:49.636Z,100283.72
2023-01-31T23:27:20.035Z,100289.78
2023-01-31T23:29:49.160Z,100285.41
2023-01-31T23:32:20.207Z,100289.78
2023-01-31T23:34:49.717Z,100296.84
2023-01-31T23:37:19.328Z,100296.00
2023-01-31T23:39:50.182Z,100294.34
2023-01-31T23:42:27.957Z,100296.16
2023-01-31T23:44:56.972Z,100302.28
2023-01-31T23:47:25.924Z,100303.16
2023-01-31T23:50:04.981Z,100310.16
2023-01-31T23:52:40.508Z,100290.94
2023-01-31T23:55:12.075Z,100298.84
2023-01-31T23:57:43.302Z,100292.72
